createdAt,value
2018-06-25T00:01:59.059Z,8.20
2018-06-25T00:04:27.165Z,8.23
2018-06-25T00:06:55.316Z,8.13
2018-06-25T00:09:23.461Z,9.87
2018-06-25T00:11:51.601Z,7.90
2018-06-25T00:14:19.749Z,7.50
2018-06-25T00:16:47.909Z,8.23
2018-06-25T00:19:16.004Z,9.70
2018-06-25T00:21:44.201Z,9.20
2018-06-25T00:24:12.282Z,8.93
2018-06-25T00:26:40.400Z,9.83
2018-06-25T00:29:08.492Z,9.07
2018-06-25T00:31:36.603Z,8.87
2018-06-25T00:34:04.937Z,8.97
2018-06-25T00:36:33.025Z,9.73
2018-06-25T00:39:01.109Z,7.20
2018-06-25T00:41:29.233Z,7.80
2018-06-25T00:43:57.310Z,8.63
2018-06-25T00:46:25.540Z,10.90
2018-06-25T00:48:53.679Z,8.03
2018-06-25T00:51:21.779Z,8.53
2018-06-25T00:53:49.916Z,10.37
2018-06-25T00:56:18.022Z,13.73
2018-06-25T00:58:57.485Z,14.77
2018-06-25T01:01:25.630Z,13.40
2018-06-25T01:03:53.768Z,15.97
2018-06-25T01:06:21.903Z,13.63
2018-06-25T01:08:50.087Z,11.70
2018-06-25T01:11:18.212Z,18.17
2018-06-25T01:13:46.313Z,13.33
2018-06-25T01:16:14.280Z,13.33
2018-06-25T01:18:42.475Z,15.80
2018-06-25T01:21:10.583Z,14.60
2018-06-25T01:23:38.687Z,16.53
2018-06-25T01:26:06.824Z,15.23
2018-06-25T01:28:34.935Z,18.83
2018-06-25T01:31:03.157Z,16.70
2018-06-25T01:33:31.343Z,16.87
2018-06-25T01:35:59.578Z,19.70
2018-06-25T01:38:27.704Z,20.67
2018-06-25T01:40:55.885Z,21.20
2018-06-25T01:43:24.023Z,19.57
2018-06-25T01:45:52.280Z,20.37
2018-06-25T01:48:20.365Z,21.27
2018-06-25T01:50:48.508Z,23.27
2018-06-25T01:53:16.621Z,18.33
2018-06-25T01:55:44.550Z,17.07
2018-06-25T01:58:12.752Z,17.20
2018-06-25T02:00:40.859Z,16.60
2018-06-25T02:03:09.027Z,14.60
2018-06-25T02:05:37.154Z,16.00
2018-06-25T02:08:05.563Z,11.97
2018-06-25T02:10:33.759Z,12.13
2018-06-25T02:13:01.879Z,11.73
2018-06-25T02:15:29.983Z,11.67
2018-06-25T02:17:58.151Z,12.30
2018-06-25T02:20:26.281Z,14.73
2018-06-25T02:22:54.458Z,14.13
2018-06-25T02:25:22.540Z,11.40
2018-06-25T02:27:50.636Z,12.53
2018-06-25T02:30:18.768Z,12.23
2018-06-25T02:32:46.943Z,11.57
2018-06-25T02:35:15.053Z,13.67
2018-06-25T02:37:43.152Z,12.23
2018-06-25T02:40:11.260Z,11.27
2018-06-25T02:42:39.394Z,12.47
2018-06-25T02:45:07.606Z,11.90
2018-06-25T02:47:35.706Z,12.50
2018-06-25T02:50:03.894Z,11.07
2018-06-25T02:52:32.020Z,14.63
2018-06-25T02:55:00.138Z,11.90
2018-06-25T02:57:28.232Z,11.00
2018-06-25T02:59:56.338Z,12.47
2018-06-25T03:02:24.416Z,12.33
2018-06-25T03:04:52.557Z,10.50
2018-06-25T03:07:23.889Z,10.23
2018-06-25T03:09:52.041Z,11.40
2018-06-25T03:12:20.241Z,12.43
2018-06-25T03:14:48.398Z,13.77
2018-06-25T03:17:16.536Z,13.10
2018-06-25T03:19:44.715Z,11.93
2018-06-25T03:22:12.843Z,11.97
2018-06-25T03:24:42.010Z,11.27
2018-06-25T03:27:10.352Z,11.43
2018-06-25T03:29:38.477Z,12.67
2018-06-25T03:32:06.583Z,14.83
2018-06-25T03:34:34.719Z,15.07
2018-06-25T03:37:02.873Z,13.97
2018-06-25T03:39:30.997Z,14.37
2018-06-25T03:41:59.116Z,12.23
2018-06-25T03:44:27.256Z,10.50
2018-06-25T03:46:55.359Z,11.63
2018-06-25T03:49:23.490Z,12.17
2018-06-25T03:51:51.617Z,13.40
2018-06-25T03:54:19.677Z,11.53
2018-06-25T03:56:47.782Z,14.57
2018-06-25T03:59:15.902Z,13.70
2018-06-25T04:01:44.070Z,14.13
2018-06-25T04:04:12.427Z,13.77
2018-06-25T04:06:40.556Z,14.03
2018-06-25T04:09:10.064Z,16.03
2018-06-25T04:11:38.263Z,15.40
2018-06-25T04:14:06.437Z,14.03
2018-06-25T04:16:34.542Z,15.40
2018-06-25T04:19:04.891Z,12.27
2018-06-25T04:21:34.982Z,11.37
2018-06-25T04:24:03.123Z,10.83
2018-06-25T04:26:31.916Z,13.27
2018-06-25T04:29:00.076Z,13.97
2018-06-25T04:31:28.687Z,10.77
2018-06-25T04:33:56.936Z,14.67
2018-06-25T04:36:25.100Z,14.47
2018-06-25T04:38:53.227Z,16.17
2018-06-25T04:41:21.382Z,14.50
2018-06-25T04:43:53.319Z,17.07
2018-06-25T04:46:21.412Z,15.37
2018-06-25T04:48:49.504Z,15.70
2018-06-25T04:51:17.663Z,14.77
2018-06-25T04:53:45.769Z,17.13
2018-06-25T04:56:13.907Z,13.97
2018-06-25T04:58:42.001Z,14.13
2018-06-25T05:01:10.138Z,18.17
2018-06-25T05:03:38.502Z,15.10
2018-06-25T05:06:06.406Z,13.57
2018-06-25T05:08:34.559Z,12.17
2018-06-25T05:11:02.674Z,10.60
2018-06-25T05:13:30.849Z,12.50
2018-06-25T05:15:58.974Z,11.10
2018-06-25T05:18:27.182Z,11.33
2018-06-25T05:20:55.286Z,13.17
2018-06-25T05:23:23.403Z,11.00
2018-06-25T05:25:51.289Z,12.77
2018-06-25T05:28:19.482Z,12.20
2018-06-25T05:30:47.651Z,14.37
2018-06-25T05:33:15.699Z,14.00
2018-06-25T05:35:43.860Z,16.57
2018-06-25T05:38:12.036Z,15.67
2018-06-25T05:40:40.202Z,13.57
2018-06-25T05:43:08.383Z,18.33
2018-06-25T05:45:36.519Z,14.67
2018-06-25T05:48:04.646Z,17.37
2018-06-25T05:50:32.838Z,16.13
2018-06-25T05:53:00.972Z,16.33
2018-06-25T05:55:29.402Z,17.83
2018-06-25T05:57:57.597Z,20.77
2018-06-25T06:00:25.799Z,17.93
2018-06-25T06:02:53.970Z,16.00
2018-06-25T06:05:22.200Z,19.20
2018-06-25T06:07:50.372Z,21.97
2018-06-25T06:10:18.608Z,27.03
2018-06-25T06:12:46.751Z,35.67
2018-06-25T06:15:14.852Z,34.37
2018-06-25T06:17:43.046Z,43.93
2018-06-25T06:20:11.207Z,39.90
2018-06-25T06:22:39.332Z,37.63
2018-06-25T06:25:07.431Z,35.97
2018-06-25T06:27:35.579Z,37.57
2018-06-25T06:30:03.678Z,42.03
2018-06-25T06:32:31.831Z,43.73
2018-06-25T06:34:59.941Z,38.87
2018-06-25T06:37:28.140Z,39.43
2018-06-25T06:39:56.136Z,47.07
2018-06-25T06:42:24.344Z,52.43
2018-06-25T06:44:52.898Z,43.73
2018-06-25T06:47:21.003Z,47.90
2018-06-25T06:49:49.112Z,45.83
2018-06-25T06:52:17.237Z,46.70
2018-06-25T06:54:45.387Z,50.93
2018-06-25T06:57:13.558Z,52.23
2018-06-25T06:59:41.766Z,54.00
2018-06-25T07:02:09.907Z,49.33
2018-06-25T07:04:38.113Z,41.97
2018-06-25T07:07:06.202Z,52.07
2018-06-25T07:09:34.396Z,45.70
2018-06-25T07:12:02.530Z,39.27
2018-06-25T07:14:30.658Z,39.63
2018-06-25T07:16:58.776Z,32.67
2018-06-25T07:19:26.961Z,24.87
2018-06-25T07:21:55.126Z,29.67
2018-06-25T07:24:23.208Z,29.37
2018-06-25T07:26:51.299Z,31.47
2018-06-25T07:29:19.423Z,29.07
2018-06-25T07:31:47.611Z,27.73
2018-06-25T07:34:15.795Z,28.13
2018-06-25T07:36:43.906Z,24.80
2018-06-25T07:39:12.051Z,26.30
2018-06-25T07:41:40.171Z,23.43
2018-06-25T07:44:08.309Z,22.30
2018-06-25T07:46:36.597Z,21.17
2018-06-25T07:49:04.736Z,17.83
2018-06-25T07:51:32.883Z,17.13
2018-06-25T07:54:01.006Z,18.57
2018-06-25T07:56:29.154Z,16.90
2018-06-25T07:58:57.373Z,15.90
2018-06-25T08:01:25.483Z,14.90
2018-06-25T08:03:53.618Z,19.20
2018-06-25T08:06:21.713Z,18.03
2018-06-25T08:08:50.059Z,15.53
2018-06-25T08:11:18.205Z,13.73
2018-06-25T08:13:46.394Z,18.53
2018-06-25T08:16:14.537Z,17.77
2018-06-25T08:18:42.805Z,17.07
2018-06-25T08:21:11.147Z,16.33
2018-06-25T08:23:39.326Z,14.17
2018-06-25T08:26:07.431Z,12.97
2018-06-25T08:28:35.569Z,31.03
2018-06-25T08:31:03.714Z,24.53
2018-06-25T08:33:31.838Z,14.83
2018-06-25T08:35:59.957Z,16.17
2018-06-25T08:38:28.095Z,15.87
2018-06-25T08:40:56.301Z,14.67
2018-06-25T08:43:24.238Z,16.83
2018-06-25T08:45:52.449Z,22.70
2018-06-25T08:48:20.547Z,14.70
2018-06-25T08:50:48.682Z,15.93
2018-06-25T08:53:16.889Z,20.50
2018-06-25T08:55:45.029Z,19.17
2018-06-25T08:58:13.178Z,18.13
2018-06-25T09:00:41.355Z,14.57
2018-06-25T09:03:09.549Z,16.57
2018-06-25T09:05:37.628Z,12.37
2018-06-25T09:08:05.491Z,11.33
2018-06-25T09:10:33.630Z,12.50
2018-06-25T09:13:01.805Z,14.87
2018-06-25T09:15:30.123Z,16.33
2018-06-25T09:17:58.265Z,12.47
2018-06-25T09:20:26.499Z,15.63
2018-06-25T09:22:54.885Z,18.63
2018-06-25T09:25:22.987Z,14.03
2018-06-25T09:27:51.138Z,15.40
2018-06-25T09:30:20.126Z,16.63
2018-06-25T09:32:48.250Z,12.13
2018-06-25T09:35:16.369Z,13.97
2018-06-25T09:37:44.465Z,12.93
2018-06-25T09:40:12.580Z,9.97
2018-06-25T09:42:40.679Z,8.83
2018-06-25T09:45:09.884Z,10.53
2018-06-25T09:47:38.005Z,9.13
2018-06-25T09:50:06.161Z,11.93
2018-06-25T09:52:34.267Z,14.03
2018-06-25T09:55:02.403Z,15.97
2018-06-25T09:57:30.604Z,11.43
2018-06-25T09:59:58.780Z,18.33
2018-06-25T10:02:26.902Z,15.37
2018-06-25T10:04:55.062Z,12.13
2018-06-25T10:09:56.962Z,15.07
2018-06-25T10:12:25.168Z,12.67
2018-06-25T10:14:53.425Z,10.77
2018-06-25T10:17:21.637Z,13.23
2018-06-25T10:19:50.087Z,11.50
2018-06-25T10:22:18.240Z,13.63
2018-06-25T10:24:46.384Z,12.07
2018-06-25T10:27:14.498Z,10.77
2018-06-25T10:29:42.677Z,10.03
2018-06-25T10:32:10.843Z,12.60
2018-06-25T10:34:38.772Z,10.93
2018-06-25T10:37:07.127Z,9.17
2018-06-25T10:39:35.268Z,9.63
2018-06-25T10:42:03.438Z,9.27
2018-06-25T10:44:31.560Z,12.47
2018-06-25T10:46:59.708Z,12.80
2018-06-25T10:49:27.886Z,11.80
2018-06-25T10:51:56.077Z,10.70
2018-06-25T10:54:24.204Z,8.30
2018-06-25T10:56:52.371Z,10.77
2018-06-25T10:59:20.485Z,9.20
2018-06-25T11:01:48.678Z,9.77
2018-06-25T11:04:16.804Z,8.80
2018-06-25T11:06:45.015Z,8.20
2018-06-25T11:09:13.450Z,8.93
2018-06-25T11:11:41.874Z,10.17
2018-06-25T11:14:10.046Z,6.40
2018-06-25T11:16:38.180Z,9.37
2018-06-25T11:19:06.382Z,11.50
2018-06-25T11:21:34.573Z,9.47
2018-06-25T11:24:02.715Z,10.17
2018-06-25T11:26:30.846Z,10.10
2018-06-25T11:28:58.945Z,9.90
2018-06-25T11:31:27.066Z,13.40
2018-06-25T11:33:55.625Z,11.83
2018-06-25T11:36:23.712Z,7.43
2018-06-25T11:38:51.859Z,7.93
2018-06-25T11:41:20.000Z,12.13
2018-06-25T11:43:48.122Z,7.40
2018-06-25T11:46:16.290Z,5.90
2018-06-25T11:48:44.419Z,9.53
2018-06-25T11:51:12.554Z,18.03
2018-06-25T11:53:40.592Z,6.40
2018-06-25T11:56:08.710Z,10.77
2018-06-25T11:58:36.819Z,7.77
2018-06-25T12:01:04.947Z,9.23
2018-06-25T12:03:32.845Z,7.80
2018-06-25T12:06:01.008Z,5.40
2018-06-25T12:08:29.120Z,7.17
2018-06-25T12:10:57.227Z,11.03
2018-06-25T12:13:25.330Z,8.47
2018-06-25T12:15:53.478Z,5.73
2018-06-25T12:18:21.612Z,6.23
2018-06-25T12:20:49.722Z,8.63
2018-06-25T12:23:17.826Z,11.17
2018-06-25T12:25:45.962Z,12.03
2018-06-25T12:28:14.061Z,6.20
2018-06-25T12:30:42.216Z,7.23
2018-06-25T12:33:10.313Z,11.20
2018-06-25T12:35:38.424Z,7.27
2018-06-25T12:38:06.511Z,9.23
2018-06-25T12:40:41.631Z,10.17
2018-06-25T12:43:09.775Z,5.27
2018-06-25T12:45:37.942Z,7.07
2018-06-25T12:48:06.468Z,8.33
2018-06-25T12:50:34.625Z,9.77
2018-06-25T12:53:02.841Z,8.40
2018-06-25T12:55:32.097Z,7.70
2018-06-25T12:58:00.194Z,13.20
2018-06-25T13:00:28.319Z,14.20
2018-06-25T13:02:56.269Z,6.57
2018-06-25T13:05:24.384Z,7.17
2018-06-25T13:07:52.557Z,10.07
2018-06-25T13:10:20.665Z,8.27
2018-06-25T13:12:48.822Z,7.77
2018-06-25T13:15:17.013Z,5.83
2018-06-25T13:17:45.152Z,7.37
2018-06-25T13:20:13.277Z,7.90
2018-06-25T13:22:48.043Z,5.97
2018-06-25T13:25:16.166Z,7.33
2018-06-25T13:27:44.330Z,5.87
2018-06-25T13:30:12.689Z,11.30
2018-06-25T13:32:40.982Z,9.13
2018-06-25T13:35:09.092Z,6.33
2018-06-25T13:37:38.060Z,6.43
2018-06-25T13:40:06.290Z,7.97
2018-06-25T13:42:34.635Z,5.47
2018-06-25T13:45:02.862Z,7.80
2018-06-25T13:47:31.078Z,5.87
2018-06-25T13:49:59.229Z,8.03
2018-06-25T13:52:27.502Z,6.27
2018-06-25T13:54:56.102Z,8.37
2018-06-25T13:57:24.244Z,7.30
2018-06-25T13:59:52.399Z,5.40
2018-06-25T14:02:20.567Z,6.63
2018-06-25T14:04:48.678Z,6.90
2018-06-25T14:07:16.873Z,8.17
2018-06-25T14:09:45.117Z,6.13
2018-06-25T14:12:13.475Z,5.80
2018-06-25T14:14:41.824Z,5.27
2018-06-25T14:17:10.359Z,6.57
2018-06-25T14:19:38.402Z,5.93
2018-06-25T14:22:06.569Z,6.97
2018-06-25T14:24:40.036Z,7.57
2018-06-25T14:27:10.733Z,4.83
2018-06-25T14:29:38.858Z,6.50
2018-06-25T14:32:10.910Z,5.83
2018-06-25T14:34:39.731Z,9.37
2018-06-25T14:37:09.477Z,8.10
2018-06-25T14:39:37.627Z,8.27
2018-06-25T14:42:06.005Z,6.77
2018-06-25T14:44:34.122Z,7.17
2018-06-25T14:47:02.265Z,9.73
2018-06-25T14:49:30.464Z,7.13
2018-06-25T14:51:58.635Z,5.40
2018-06-25T14:54:26.911Z,10.00
2018-06-25T14:56:55.091Z,8.37
2018-06-25T14:59:23.321Z,7.13
2018-06-25T15:01:51.494Z,6.10
2018-06-25T15:04:19.655Z,11.10
2018-06-25T15:06:47.779Z,10.20
2018-06-25T15:09:15.950Z,6.70
2018-06-25T15:11:44.503Z,6.53
2018-06-25T15:14:12.631Z,11.50
2018-06-25T15:16:40.758Z,7.83
2018-06-25T15:19:08.964Z,8.17
2018-06-25T15:21:37.171Z,6.83
2018-06-25T15:24:05.327Z,8.07
2018-06-25T15:26:33.537Z,11.80
2018-06-25T15:29:01.708Z,7.30
2018-06-25T15:31:29.872Z,12.20
2018-06-25T15:33:58.058Z,7.07
2018-06-25T15:36:26.179Z,11.43
2018-06-25T15:38:54.400Z,7.13
2018-06-25T15:41:22.532Z,13.97
2018-06-25T15:43:50.768Z,9.60
2018-06-25T15:46:18.962Z,9.27
2018-06-25T15:48:47.150Z,12.00
2018-06-25T15:51:15.502Z,7.90
2018-06-25T15:53:43.771Z,12.17
2018-06-25T15:56:11.920Z,10.87
2018-06-25T15:58:39.861Z,13.50
2018-06-25T16:01:07.980Z,11.00
2018-06-25T16:03:36.137Z,12.27
2018-06-25T16:06:04.363Z,11.83
2018-06-25T16:08:32.590Z,12.13
2018-06-25T16:11:00.780Z,12.03
2018-06-25T16:13:28.998Z,9.17
2018-06-25T16:15:57.167Z,10.53
2018-06-25T16:18:25.297Z,11.60
2018-06-25T16:20:53.244Z,7.73
2018-06-25T16:23:21.373Z,8.80
2018-06-25T16:25:49.569Z,10.83
2018-06-25T16:28:17.827Z,6.70
2018-06-25T16:30:45.999Z,10.50
2018-06-25T16:33:14.168Z,8.00
2018-06-25T16:35:42.658Z,7.77
2018-06-25T16:38:10.772Z,8.83
2018-06-25T16:40:38.920Z,7.83
2018-06-25T16:43:07.312Z,6.43
2018-06-25T16:45:35.449Z,5.80
2018-06-25T16:48:03.564Z,7.23
2018-06-25T16:50:31.769Z,4.87
2018-06-25T16:52:59.896Z,8.00
2018-06-25T16:55:28.021Z,7.53
2018-06-25T16:57:56.312Z,6.10
2018-06-25T17:00:24.578Z,7.53
2018-06-25T17:02:52.733Z,5.37
2018-06-25T17:05:20.829Z,7.53
2018-06-25T17:07:48.941Z,6.87
2018-06-25T17:10:17.035Z,9.13
2018-06-25T17:12:45.154Z,8.57
2018-06-25T17:15:13.335Z,7.50
2018-06-25T17:17:41.690Z,6.63
2018-06-25T17:20:09.795Z,8.83
2018-06-25T17:22:37.910Z,6.10
2018-06-25T17:25:06.026Z,5.60
2018-06-25T17:27:34.228Z,4.87
2018-06-25T17:30:02.354Z,6.30
2018-06-25T17:32:30.477Z,8.17
2018-06-25T17:34:58.631Z,7.23
2018-06-25T17:37:26.974Z,5.70
2018-06-25T17:39:55.091Z,7.23
2018-06-25T17:42:23.260Z,7.27
2018-06-25T17:44:51.405Z,7.97
2018-06-25T17:47:19.567Z,6.93
2018-06-25T17:49:47.691Z,8.40
2018-06-25T17:52:15.808Z,7.53
2018-06-25T17:54:43.970Z,7.83
2018-06-25T17:57:12.090Z,7.13
2018-06-25T17:59:40.459Z,8.50
2018-06-25T18:02:08.587Z,8.60
2018-06-25T18:04:36.840Z,7.63
2018-06-25T18:07:05.105Z,12.47
2018-06-25T18:09:33.291Z,9.07
2018-06-25T18:12:01.414Z,10.73
2018-06-25T18:14:29.882Z,10.87
2018-06-25T18:16:57.997Z,8.67
2018-06-25T18:19:26.106Z,7.83
2018-06-25T18:21:54.462Z,11.40
2018-06-25T18:24:22.738Z,7.53
2018-06-25T18:26:50.909Z,13.07
2018-06-25T18:29:19.659Z,12.70
2018-06-25T18:31:47.890Z,10.30
2018-06-25T18:34:16.083Z,10.90
2018-06-25T18:36:44.486Z,10.90
2018-06-25T18:39:13.820Z,10.90
2018-06-25T18:41:42.775Z,11.83
2018-06-25T18:44:10.984Z,13.47
2018-06-25T18:46:39.117Z,10.80
2018-06-25T18:49:07.320Z,11.73
2018-06-25T18:51:35.436Z,18.90
2018-06-25T18:54:03.584Z,11.50
2018-06-25T18:56:31.724Z,13.40
2018-06-25T18:58:59.857Z,16.27
2018-06-25T19:01:27.995Z,15.53
2018-06-25T19:03:56.107Z,13.27
2018-06-25T19:06:24.318Z,15.03
2018-06-25T19:08:52.434Z,13.33
2018-06-25T19:11:20.550Z,13.50
2018-06-25T19:13:48.970Z,12.30
2018-06-25T19:16:17.143Z,17.03
2018-06-25T19:18:46.095Z,13.17
2018-06-25T19:21:14.214Z,14.93
2018-06-25T19:23:42.362Z,12.57
2018-06-25T19:26:10.500Z,18.40
2018-06-25T19:28:38.669Z,12.10
2018-06-25T19:31:07.221Z,13.97
2018-06-25T19:33:35.383Z,13.30
2018-06-25T19:36:03.230Z,17.33
2018-06-25T19:38:31.323Z,13.70
2018-06-25T19:40:59.401Z,15.17
2018-06-25T19:43:27.521Z,14.70
2018-06-25T19:45:55.516Z,11.20
2018-06-25T19:48:23.665Z,14.40
2018-06-25T19:50:51.815Z,13.67
2018-06-25T19:53:19.927Z,16.23
2018-06-25T19:55:48.100Z,14.70
2018-06-25T19:58:16.258Z,16.27
2018-06-25T20:00:44.417Z,13.50
2018-06-25T20:03:12.502Z,19.53
2018-06-25T20:05:40.598Z,19.13
2018-06-25T20:08:08.804Z,15.47
2018-06-25T20:10:36.876Z,21.77
2018-06-25T20:13:05.001Z,19.47
2018-06-25T20:15:33.233Z,19.37
2018-06-25T20:18:01.077Z,19.40
2018-06-25T20:20:29.248Z,21.77
2018-06-25T20:22:57.356Z,21.30
2018-06-25T20:25:25.463Z,19.77
2018-06-25T20:27:53.584Z,23.73
2018-06-25T20:30:21.730Z,17.40
2018-06-25T20:32:49.609Z,19.17
2018-06-25T20:35:17.514Z,18.47
2018-06-25T20:37:45.613Z,23.60
2018-06-25T20:40:13.786Z,17.93
2018-06-25T20:42:41.902Z,20.00
2018-06-25T20:45:10.095Z,20.50
2018-06-25T20:47:38.435Z,19.77
2018-06-25T20:50:06.570Z,18.47
2018-06-25T20:52:34.780Z,23.83
2018-06-25T20:55:02.949Z,17.47
2018-06-25T20:57:31.064Z,25.10
2018-06-25T20:59:59.269Z,23.00
2018-06-25T21:02:27.442Z,24.30
2018-06-25T21:04:55.801Z,22.60
2018-06-25T21:07:23.924Z,24.33
2018-06-25T21:09:52.031Z,21.07
2018-06-25T21:12:20.205Z,21.63
2018-06-25T21:14:48.416Z,20.67
2018-06-25T21:17:16.523Z,25.90
2018-06-25T21:19:44.620Z,26.23
2018-06-25T21:22:12.814Z,22.50
2018-06-25T21:24:40.949Z,19.97
2018-06-25T21:27:09.062Z,20.70
2018-06-25T21:29:37.234Z,26.33
2018-06-25T21:32:05.387Z,22.17
2018-06-25T21:34:33.509Z,26.97
2018-06-25T21:37:01.718Z,24.23
2018-06-25T21:39:29.875Z,20.50
2018-06-25T21:41:58.127Z,22.70
2018-06-25T21:44:26.242Z,20.43
2018-06-25T21:46:54.380Z,23.67
2018-06-25T21:49:22.530Z,22.97
2018-06-25T21:51:50.662Z,25.33
2018-06-25T21:54:18.812Z,21.77
2018-06-25T21:56:46.918Z,23.17
2018-06-25T21:59:15.090Z,22.83
2018-06-25T22:01:43.334Z,19.53
2018-06-25T22:04:11.451Z,17.93
2018-06-25T22:06:39.563Z,26.80
2018-06-25T22:09:08.910Z,21.93
2018-06-25T22:11:37.024Z,25.27
2018-06-25T22:14:05.292Z,19.03
2018-06-25T22:16:33.432Z,17.37
2018-06-25T22:19:01.570Z,18.00
2018-06-25T22:21:29.670Z,19.23
2018-06-25T22:23:57.784Z,22.87
2018-06-25T22:26:25.914Z,20.50
2018-06-25T22:28:54.042Z,19.07
2018-06-25T22:31:22.139Z,25.10
2018-06-25T22:33:50.261Z,20.57
2018-06-25T22:36:18.435Z,23.33
2018-06-25T22:38:46.558Z,15.07
2018-06-25T22:41:14.651Z,24.13
2018-06-25T22:43:42.819Z,20.63
2018-06-25T22:46:10.904Z,21.07
2018-06-25T22:48:39.067Z,19.40
2018-06-25T22:51:07.169Z,20.60
2018-06-25T22:53:35.390Z,18.10
2018-06-25T22:56:03.496Z,24.97
2018-06-25T22:58:31.627Z,24.23
2018-06-25T23:00:59.739Z,30.77
2018-06-25T23:03:27.880Z,25.53
2018-06-25T23:05:55.984Z,25.97
2018-06-25T23:08:24.140Z,25.47
2018-06-25T23:10:52.291Z,25.57
2018-06-25T23:13:20.424Z,22.67
2018-06-25T23:15:48.540Z,27.87
2018-06-25T23:18:16.670Z,26.63
2018-06-25T23:20:44.921Z,28.03
2018-06-25T23:23:13.023Z,28.23
2018-06-25T23:25:41.135Z,33.10
2018-06-25T23:28:09.293Z,30.33
2018-06-25T23:30:37.230Z,23.10
2018-06-25T23:33:05.296Z,22.83
2018-06-25T23:35:33.190Z,19.57
2018-06-25T23:38:01.238Z,19.17
2018-06-25T23:40:29.334Z,23.53
2018-06-25T23:42:57.462Z,20.77
2018-06-25T23:45:25.558Z,22.67
2018-06-25T23:47:53.429Z,23.10
2018-06-25T23:50:21.519Z,22.50
2018-06-25T23:52:49.635Z,23.63
2018-06-25T23:55:17.720Z,20.37
2018-06-25T23:57:45.824Z,30.47
